createdAt,value
2018-09-24T00:01:16.898Z,1.17
2018-09-24T00:03:45.688Z,1.23
2018-09-24T00:06:14.348Z,1.23
2018-09-24T00:08:43.032Z,1.20
2018-09-24T00:11:11.698Z,1.33
2018-09-24T00:13:40.375Z,1.10
2018-09-24T00:16:09.352Z,0.60
2018-09-24T00:18:37.971Z,0.90
2018-09-24T00:21:06.618Z,0.90
2018-09-24T00:23:35.251Z,1.00
2018-09-24T00:26:04.283Z,1.10
2018-09-24T00:28:33.024Z,1.07
2018-09-24T00:31:01.667Z,1.03
2018-09-24T00:33:30.310Z,1.13
2018-09-24T00:35:59.015Z,1.13
2018-09-24T00:38:27.703Z,1.20
2018-09-24T00:40:56.433Z,1.70
2018-09-24T00:43:25.205Z,1.10
2018-09-24T00:45:53.819Z,1.00
2018-09-24T00:48:22.675Z,1.53
2018-09-24T00:50:51.345Z,1.43
2018-09-24T00:53:19.999Z,1.10
2018-09-24T00:55:48.641Z,1.07
2018-09-24T00:58:17.259Z,0.90
2018-09-24T01:00:45.942Z,1.37
2018-09-24T01:03:14.663Z,1.10
2018-09-24T01:05:43.452Z,1.20
2018-09-24T01:08:12.098Z,1.00
2018-09-24T01:10:40.822Z,1.27
2018-09-24T01:13:09.466Z,1.43
2018-09-24T01:15:38.104Z,1.50
2018-09-24T01:18:07.071Z,1.03
2018-09-24T01:20:35.716Z,1.00
2018-09-24T01:23:04.346Z,1.00
2018-09-24T01:25:32.972Z,1.27
2018-09-24T01:28:02.641Z,1.20
2018-09-24T01:30:31.377Z,1.10
2018-09-24T01:33:00.018Z,1.27
2018-09-24T01:35:28.835Z,1.03
2018-09-24T01:37:57.519Z,1.10
2018-09-24T01:40:26.199Z,0.90
2018-09-24T01:42:54.853Z,0.93
2018-09-24T01:45:23.515Z,1.33
2018-09-24T01:47:52.128Z,1.40
2018-09-24T01:50:20.781Z,1.30
2018-09-24T01:52:49.419Z,1.07
2018-09-24T01:55:18.075Z,1.27
2018-09-24T01:57:46.754Z,1.07
2018-09-24T02:00:15.365Z,1.00
2018-09-24T02:02:44.096Z,1.50
2018-09-24T02:05:16.195Z,1.40
2018-09-24T02:07:44.847Z,0.73
2018-09-24T02:10:13.762Z,1.10
2018-09-24T02:12:42.496Z,1.10
2018-09-24T02:15:11.454Z,1.03
2018-09-24T02:17:40.178Z,1.37
2018-09-24T02:20:08.829Z,1.00
2018-09-24T02:22:37.487Z,0.70
2018-09-24T02:25:06.195Z,1.30
2018-09-24T02:27:34.823Z,1.10
2018-09-24T02:30:03.475Z,1.07
2018-09-24T02:32:32.131Z,1.30
2018-09-24T02:35:00.837Z,1.30
2018-09-24T02:37:29.500Z,1.00
2018-09-24T02:39:58.132Z,1.00
2018-09-24T02:42:26.842Z,0.87
2018-09-24T02:44:57.059Z,1.10
2018-09-24T02:47:28.735Z,1.30
2018-09-24T02:49:57.530Z,0.83
2018-09-24T02:52:26.247Z,0.80
2018-09-24T02:54:54.865Z,0.40
2018-09-24T02:57:23.500Z,0.83
2018-09-24T02:59:52.400Z,1.00
2018-09-24T03:02:21.163Z,0.60
2018-09-24T03:04:54.437Z,0.70
2018-09-24T03:07:23.885Z,0.90
2018-09-24T03:09:52.538Z,0.90
2018-09-24T03:12:21.305Z,0.70
2018-09-24T03:14:50.046Z,0.90
2018-09-24T03:17:19.927Z,0.60
2018-09-24T03:19:48.563Z,1.10
2018-09-24T03:22:21.921Z,1.00
2018-09-24T03:24:51.177Z,1.30
2018-09-24T03:27:20.195Z,1.10
2018-09-24T03:29:48.970Z,1.33
2018-09-24T03:32:17.638Z,1.10
2018-09-24T03:34:46.384Z,1.60
2018-09-24T03:37:15.058Z,1.47
2018-09-24T03:39:43.689Z,1.07
2018-09-24T03:42:12.350Z,1.47
2018-09-24T03:44:40.990Z,1.53
2018-09-24T03:47:09.802Z,1.33
2018-09-24T03:49:38.460Z,1.40
2018-09-24T03:52:07.278Z,1.57
2018-09-24T03:54:36.004Z,0.90
2018-09-24T03:57:04.687Z,1.40
2018-09-24T03:59:33.324Z,1.50
2018-09-24T04:02:01.978Z,1.07
2018-09-24T04:04:35.935Z,1.03
2018-09-24T04:07:10.051Z,1.40
2018-09-24T04:09:44.059Z,1.37
2018-09-24T04:12:17.919Z,1.30
2018-09-24T04:14:51.959Z,1.10
2018-09-24T04:17:25.751Z,1.10
2018-09-24T04:19:59.661Z,1.20
2018-09-24T04:22:33.497Z,1.00
2018-09-24T04:25:07.327Z,1.00
2018-09-24T04:27:41.371Z,1.67
2018-09-24T04:30:15.178Z,1.57
2018-09-24T04:32:49.339Z,1.57
2018-09-24T04:35:23.322Z,1.20
2018-09-24T04:37:57.250Z,1.37
2018-09-24T04:40:31.258Z,1.63
2018-09-24T04:43:05.122Z,1.60
2018-09-24T04:45:39.121Z,1.20
2018-09-24T04:48:13.268Z,1.53
2018-09-24T04:50:47.250Z,1.57
2018-09-24T04:53:21.260Z,1.60
2018-09-24T04:55:55.279Z,1.10
2018-09-24T04:58:29.273Z,1.00
2018-09-24T05:01:03.188Z,1.20
2018-09-24T05:03:37.091Z,1.60
2018-09-24T05:06:11.101Z,1.30
2018-09-24T05:08:45.095Z,1.43
2018-09-24T05:11:19.005Z,1.23
2018-09-24T05:13:52.924Z,1.30
2018-09-24T05:16:26.858Z,1.40
2018-09-24T05:19:01.005Z,1.27
2018-09-24T05:21:34.828Z,1.30
2018-09-24T05:24:08.750Z,1.33
2018-09-24T05:26:42.784Z,1.50
2018-09-24T05:29:16.643Z,1.53
2018-09-24T05:31:50.518Z,1.30
2018-09-24T05:34:24.533Z,1.30
2018-09-24T05:36:58.506Z,1.50
2018-09-24T05:39:32.429Z,1.30
2018-09-24T05:42:06.463Z,1.80
2018-09-24T05:44:40.483Z,1.17
2018-09-24T05:47:14.549Z,1.23
2018-09-24T05:49:48.637Z,1.10
2018-09-24T05:52:22.540Z,1.60
2018-09-24T05:54:56.439Z,1.33
2018-09-24T05:57:30.324Z,1.40
2018-09-24T06:00:04.569Z,1.60
2018-09-24T06:02:38.467Z,1.30
2018-09-24T06:05:12.366Z,1.17
2018-09-24T06:07:46.465Z,1.13
2018-09-24T06:10:20.443Z,1.30
2018-09-24T06:12:54.312Z,1.00
2018-09-24T06:15:28.290Z,1.23
2018-09-24T06:18:02.164Z,1.50
2018-09-24T06:20:35.976Z,1.17
2018-09-24T06:23:09.918Z,1.37
2018-09-24T06:25:43.790Z,1.30
2018-09-24T06:28:17.821Z,1.17
2018-09-24T06:30:51.911Z,1.40
2018-09-24T06:33:25.847Z,1.93
2018-09-24T06:35:59.701Z,1.60
2018-09-24T06:38:33.871Z,1.50
2018-09-24T06:41:07.748Z,1.67
2018-09-24T06:43:41.853Z,1.70
2018-09-24T06:46:15.771Z,1.53
2018-09-24T06:48:49.683Z,2.17
2018-09-24T06:51:23.608Z,2.00
2018-09-24T06:53:57.595Z,1.43
2018-09-24T06:56:31.682Z,1.40
2018-09-24T06:59:05.726Z,1.70
2018-09-24T07:01:39.750Z,1.77
2018-09-24T07:04:13.716Z,1.80
2018-09-24T07:06:47.638Z,1.50
2018-09-24T07:09:21.761Z,1.60
2018-09-24T07:11:55.655Z,2.03
2018-09-24T07:14:29.567Z,1.80
2018-09-24T07:17:03.455Z,1.67
2018-09-24T07:19:37.320Z,1.73
2018-09-24T07:22:11.427Z,2.00
2018-09-24T07:24:45.291Z,1.50
2018-09-24T07:27:19.291Z,1.30
2018-09-24T07:29:53.347Z,1.57
2018-09-24T07:32:27.275Z,1.93
2018-09-24T07:35:01.451Z,1.90
2018-09-24T07:37:35.402Z,1.50
2018-09-24T07:40:09.421Z,1.40
2018-09-24T07:42:43.672Z,2.00
2018-09-24T07:45:17.580Z,1.67
2018-09-24T07:47:51.435Z,1.60
2018-09-24T07:50:25.440Z,1.60
2018-09-24T07:52:59.474Z,1.90
2018-09-24T07:55:33.473Z,1.57
2018-09-24T07:58:07.522Z,1.20
2018-09-24T08:00:41.506Z,1.50
2018-09-24T08:03:15.511Z,1.50
2018-09-24T08:05:49.491Z,1.77
2018-09-24T08:08:23.536Z,1.90
2018-09-24T08:10:57.536Z,1.17
2018-09-24T08:13:31.419Z,1.47
2018-09-24T08:16:05.477Z,1.30
2018-09-24T08:18:39.401Z,1.90
2018-09-24T08:21:13.322Z,1.63
2018-09-24T08:23:47.275Z,1.37
2018-09-24T08:26:21.293Z,1.50
2018-09-24T08:28:55.298Z,1.27
2018-09-24T08:31:29.411Z,1.23
2018-09-24T08:34:03.608Z,1.73
2018-09-24T08:36:37.563Z,2.00
2018-09-24T08:39:13.010Z,1.90
2018-09-24T08:41:47.110Z,1.67
2018-09-24T08:44:21.128Z,1.50
2018-09-24T08:46:55.040Z,1.63
2018-09-24T08:49:29.019Z,1.20
2018-09-24T08:52:02.940Z,2.13
2018-09-24T08:54:36.777Z,1.40
2018-09-24T08:57:11.421Z,1.37
2018-09-24T08:59:45.460Z,1.27
2018-09-24T09:02:19.529Z,1.20
2018-09-24T09:04:53.479Z,1.30
2018-09-24T09:07:27.550Z,1.73
2018-09-24T09:10:01.831Z,0.87
2018-09-24T09:12:36.289Z,2.00
2018-09-24T09:15:10.261Z,2.37
2018-09-24T09:17:44.143Z,1.60
2018-09-24T09:20:18.025Z,1.30
2018-09-24T09:22:51.923Z,1.40
2018-09-24T09:25:26.043Z,1.50
2018-09-24T09:27:59.955Z,1.10
2018-09-24T09:30:33.876Z,1.00
2018-09-24T09:33:07.949Z,0.90
2018-09-24T09:35:41.942Z,0.80
2018-09-24T09:38:16.046Z,0.90
2018-09-24T09:40:49.972Z,1.10
2018-09-24T09:43:24.115Z,1.30
2018-09-24T09:45:57.980Z,1.07
2018-09-24T09:48:32.244Z,1.60
2018-09-24T09:51:06.247Z,0.90
2018-09-24T09:53:40.161Z,1.10
2018-09-24T09:56:14.220Z,1.00
2018-09-24T09:58:48.096Z,1.53
2018-09-24T10:01:21.984Z,0.93
2018-09-24T10:03:56.098Z,1.30
2018-09-24T10:06:30.247Z,0.90
2018-09-24T10:09:04.319Z,1.60
2018-09-24T10:11:38.355Z,1.20
2018-09-24T10:14:12.481Z,1.63
2018-09-24T10:16:46.327Z,1.27
2018-09-24T10:19:20.261Z,1.13
2018-09-24T10:21:54.165Z,0.80
2018-09-24T10:24:28.433Z,12.37
2018-09-24T10:27:02.456Z,15.23
2018-09-24T10:29:36.432Z,5.73
2018-09-24T10:32:10.440Z,2.87
2018-09-24T10:34:44.422Z,0.70
2018-09-24T10:37:18.316Z,0.50
2018-09-24T10:39:52.289Z,1.17
2018-09-24T10:42:26.304Z,0.77
2018-09-24T10:45:00.512Z,0.87
2018-09-24T10:47:34.378Z,0.70
2018-09-24T10:50:08.482Z,0.97
2018-09-24T10:52:42.523Z,1.00
2018-09-24T10:55:16.570Z,1.30
2018-09-24T10:57:50.479Z,1.27
2018-09-24T11:00:24.381Z,1.40
2018-09-24T11:02:58.207Z,1.13
2018-09-24T11:05:32.487Z,1.23
2018-09-24T11:08:06.763Z,1.00
2018-09-24T11:10:40.585Z,1.20
2018-09-24T11:13:14.553Z,1.10
2018-09-24T11:15:48.546Z,1.00
2018-09-24T11:18:22.458Z,1.00
2018-09-24T11:20:56.443Z,0.80
2018-09-24T11:23:30.291Z,1.00
2018-09-24T11:26:04.532Z,1.00
2018-09-24T11:28:38.398Z,1.17
2018-09-24T11:31:12.727Z,1.20
2018-09-24T11:33:46.682Z,1.13
2018-09-24T11:36:20.618Z,1.10
2018-09-24T11:38:54.547Z,1.43
2018-09-24T11:41:28.498Z,1.47
2018-09-24T11:44:02.429Z,1.50
2018-09-24T11:46:36.649Z,1.20
2018-09-24T11:49:10.504Z,1.27
2018-09-24T11:51:44.662Z,1.10
2018-09-24T11:54:18.570Z,1.30
2018-09-24T11:56:52.430Z,0.83
2018-09-24T11:59:26.603Z,1.17
2018-09-24T12:02:00.379Z,1.50
2018-09-24T12:04:34.345Z,1.43
2018-09-24T12:07:08.736Z,1.00
2018-09-24T12:09:42.699Z,1.10
2018-09-24T12:12:16.977Z,1.57
2018-09-24T12:14:50.895Z,0.73
2018-09-24T12:17:25.727Z,0.80
2018-09-24T12:19:59.808Z,1.00
2018-09-24T12:22:33.678Z,1.03
2018-09-24T12:25:07.840Z,1.00
2018-09-24T12:27:41.946Z,1.00
2018-09-24T12:30:15.978Z,1.17
2018-09-24T12:32:49.862Z,1.90
2018-09-24T12:35:23.913Z,1.13
2018-09-24T12:37:57.876Z,1.00
2018-09-24T12:40:31.889Z,1.67
2018-09-24T12:43:06.294Z,1.30
2018-09-24T12:45:40.185Z,1.27
2018-09-24T12:48:14.051Z,1.20
2018-09-24T12:50:48.625Z,1.10
2018-09-24T12:53:22.834Z,1.20
2018-09-24T12:55:57.368Z,1.00
2018-09-24T12:58:31.717Z,1.30
2018-09-24T13:01:05.815Z,1.57
2018-09-24T13:03:39.823Z,1.33
2018-09-24T13:06:14.271Z,1.33
2018-09-24T13:08:48.485Z,1.30
2018-09-24T13:11:22.927Z,1.07
2018-09-24T13:13:57.028Z,0.63
2018-09-24T13:16:31.298Z,0.80
2018-09-24T13:19:05.469Z,0.70
2018-09-24T13:21:40.056Z,0.70
2018-09-24T13:24:14.202Z,0.37
2018-09-24T13:26:48.576Z,0.70
2018-09-24T13:29:22.688Z,0.50
2018-09-24T13:31:56.658Z,0.50
2018-09-24T13:34:30.631Z,0.50
2018-09-24T13:37:04.529Z,0.50
2018-09-24T13:39:38.534Z,0.60
2018-09-24T13:42:12.548Z,0.67
2018-09-24T13:44:46.503Z,0.80
2018-09-24T13:47:20.501Z,0.73
2018-09-24T13:49:54.655Z,0.70
2018-09-24T13:52:28.490Z,0.80
2018-09-24T13:55:02.613Z,0.60
2018-09-24T13:57:36.615Z,0.80
2018-09-24T14:00:11.253Z,0.83
2018-09-24T14:02:45.508Z,0.70
2018-09-24T14:05:19.553Z,0.70
2018-09-24T14:07:53.522Z,0.83
2018-09-24T14:10:27.556Z,0.70
2018-09-24T14:13:01.534Z,0.40
2018-09-24T14:15:35.728Z,0.53
2018-09-24T14:18:09.570Z,0.70
2018-09-24T14:20:43.403Z,0.60
2018-09-24T14:23:17.606Z,0.83
2018-09-24T14:25:51.729Z,0.50
2018-09-24T14:28:25.542Z,1.00
2018-09-24T14:30:59.559Z,0.87
2018-09-24T14:33:33.525Z,1.27
2018-09-24T14:36:07.553Z,0.70
2018-09-24T14:38:41.449Z,0.83
2018-09-24T14:41:15.469Z,1.27
2018-09-24T14:43:49.525Z,0.80
2018-09-24T14:46:23.650Z,0.93
2018-09-24T14:48:57.678Z,1.07
2018-09-24T14:51:31.644Z,1.00
2018-09-24T14:54:05.772Z,1.10
2018-09-24T14:56:39.815Z,0.90
2018-09-24T14:59:13.969Z,1.57
2018-09-24T15:01:48.100Z,1.00
2018-09-24T15:04:22.375Z,0.80
2018-09-24T15:06:56.386Z,1.00
2018-09-24T15:09:30.360Z,0.87
2018-09-24T15:12:04.425Z,1.17
2018-09-24T15:14:38.314Z,1.13
2018-09-24T15:17:12.492Z,1.07
2018-09-24T15:19:46.311Z,0.90
2018-09-24T15:22:20.351Z,1.00
2018-09-24T15:24:54.233Z,0.90
2018-09-24T15:27:28.135Z,1.30
2018-09-24T15:30:02.072Z,1.20
2018-09-24T15:32:36.122Z,1.40
2018-09-24T15:35:10.842Z,1.00
2018-09-24T15:37:44.752Z,1.60
2018-09-24T15:40:18.802Z,1.10
2018-09-24T15:42:52.637Z,1.23
2018-09-24T15:45:26.572Z,1.57
2018-09-24T15:48:00.582Z,1.20
2018-09-24T15:50:34.491Z,1.30
2018-09-24T15:53:08.501Z,1.20
2018-09-24T15:55:42.382Z,1.30
2018-09-24T15:58:16.261Z,0.90
2018-09-24T16:00:50.192Z,1.10
2018-09-24T16:03:24.094Z,1.10
2018-09-24T16:05:58.025Z,1.40
2018-09-24T16:08:31.932Z,1.60
2018-09-24T16:11:05.823Z,0.90
2018-09-24T16:13:39.827Z,1.40
2018-09-24T16:16:14.021Z,0.83
2018-09-24T16:18:48.021Z,0.90
2018-09-24T16:21:21.898Z,3.03
2018-09-24T16:23:55.714Z,1.33
2018-09-24T16:26:29.664Z,1.20
2018-09-24T16:29:03.508Z,1.07
2018-09-24T16:31:37.494Z,1.20
2018-09-24T16:34:11.382Z,1.00
2018-09-24T16:36:45.264Z,1.90
2018-09-24T16:39:19.213Z,6.70
2018-09-24T16:41:53.424Z,4.73
2018-09-24T16:44:27.479Z,2.70
2018-09-24T16:47:01.499Z,1.03
2018-09-24T16:49:35.631Z,1.07
2018-09-24T16:52:09.586Z,1.00
2018-09-24T16:54:43.580Z,1.87
2018-09-24T16:57:17.469Z,1.50
2018-09-24T16:59:51.331Z,1.77
2018-09-24T17:02:25.197Z,1.23
2018-09-24T17:04:59.027Z,1.20
2018-09-24T17:07:33.006Z,1.10
2018-09-24T17:10:06.895Z,0.97
2018-09-24T17:12:40.935Z,1.80
2018-09-24T17:15:15.063Z,1.23
2018-09-24T17:17:49.266Z,1.17
2018-09-24T17:20:23.302Z,1.43
2018-09-24T17:22:57.390Z,1.30
2018-09-24T17:25:31.479Z,1.57
2018-09-24T17:28:05.593Z,1.43
2018-09-24T17:30:39.443Z,1.30
2018-09-24T17:33:13.474Z,1.70
2018-09-24T17:35:47.352Z,1.90
2018-09-24T17:38:21.486Z,1.27
2018-09-24T17:40:55.577Z,1.67
2018-09-24T17:43:29.487Z,1.50
2018-09-24T17:46:03.697Z,1.80
2018-09-24T17:48:37.432Z,1.80
2018-09-24T17:51:11.469Z,2.30
2018-09-24T17:53:45.759Z,2.20
2018-09-24T17:56:19.731Z,1.77
2018-09-24T17:58:53.680Z,1.73
2018-09-24T18:01:27.845Z,1.60
2018-09-24T18:04:02.057Z,1.40
2018-09-24T18:06:35.928Z,1.30
2018-09-24T18:09:11.359Z,1.80
2018-09-24T18:11:45.660Z,1.60
2018-09-24T18:14:19.505Z,1.40
2018-09-24T18:16:53.317Z,1.60
2018-09-24T18:19:27.522Z,1.70
2018-09-24T18:22:01.458Z,1.53
2018-09-24T18:24:35.600Z,1.20
2018-09-24T18:27:09.936Z,1.47
2018-09-24T18:29:43.952Z,1.30
2018-09-24T18:32:17.870Z,1.67
2018-09-24T18:34:51.851Z,1.70
2018-09-24T18:37:26.119Z,1.80
2018-09-24T18:40:00.189Z,1.70
2018-09-24T18:42:41.366Z,1.53
2018-09-24T18:45:15.315Z,2.07
2018-09-24T18:47:49.393Z,1.97
2018-09-24T18:50:23.317Z,1.83
2018-09-24T18:52:57.349Z,2.23
2018-09-24T18:55:31.343Z,2.10
2018-09-24T18:58:05.271Z,1.90
2018-09-24T19:00:39.203Z,2.60
2018-09-24T19:03:13.340Z,2.10
2018-09-24T19:05:47.287Z,3.47
2018-09-24T19:08:21.188Z,3.40
2018-09-24T19:10:55.222Z,2.73
2018-09-24T19:13:29.222Z,2.30
2018-09-24T19:16:03.118Z,2.10
2018-09-24T19:18:37.252Z,2.23
2018-09-24T19:21:11.228Z,2.00
2018-09-24T19:23:45.227Z,3.10
2018-09-24T19:26:19.216Z,2.30
2018-09-24T19:28:53.408Z,2.73
2018-09-24T19:31:27.436Z,3.30
2018-09-24T19:34:01.442Z,3.20
2018-09-24T19:36:35.485Z,3.33
2018-09-24T19:39:09.949Z,3.43
2018-09-24T19:41:44.079Z,2.20
2018-09-24T19:44:17.931Z,2.50
2018-09-24T19:46:51.786Z,2.20
2018-09-24T19:49:26.131Z,2.67
2018-09-24T19:52:00.102Z,2.47
2018-09-24T19:54:34.057Z,2.70
2018-09-24T19:57:08.052Z,3.67
2018-09-24T19:59:42.018Z,3.87
2018-09-24T20:02:16.114Z,4.20
2018-09-24T20:04:50.062Z,2.53
2018-09-24T20:07:24.000Z,1.97
2018-09-24T20:09:57.930Z,2.47
2018-09-24T20:12:31.978Z,2.47
2018-09-24T20:15:06.066Z,1.90
2018-09-24T20:17:40.157Z,1.80
2018-09-24T20:20:14.115Z,1.70
2018-09-24T20:22:47.990Z,1.47
2018-09-24T20:25:21.903Z,2.00
2018-09-24T20:27:55.883Z,2.30
2018-09-24T20:30:29.888Z,1.77
2018-09-24T20:33:04.089Z,1.83
2018-09-24T20:35:38.068Z,1.70
2018-09-24T20:38:12.146Z,1.60
2018-09-24T20:40:46.289Z,2.07
2018-09-24T20:43:20.256Z,1.93
2018-09-24T20:45:54.288Z,1.90
2018-09-24T20:48:28.184Z,1.63
2018-09-24T20:51:02.054Z,1.90
2018-09-24T20:53:35.932Z,2.07
2018-09-24T20:56:10.152Z,2.00
2018-09-24T20:58:44.114Z,1.70
2018-09-24T21:01:18.034Z,2.13
2018-09-24T21:03:51.974Z,1.90
2018-09-24T21:06:25.992Z,1.70
2018-09-24T21:08:59.987Z,2.33
2018-09-24T21:11:33.845Z,1.70
2018-09-24T21:14:07.773Z,1.60
2018-09-24T21:16:41.652Z,1.90
2018-09-24T21:19:15.873Z,2.23
2018-09-24T21:21:49.880Z,1.87
2018-09-24T21:24:23.968Z,1.30
2018-09-24T21:26:57.898Z,1.63
2018-09-24T21:29:32.025Z,1.77
2018-09-24T21:32:05.963Z,1.60
2018-09-24T21:34:39.907Z,1.63
2018-09-24T21:37:13.856Z,1.80
2018-09-24T21:39:47.813Z,1.73
2018-09-24T21:42:21.696Z,1.60
2018-09-24T21:44:55.703Z,1.60
2018-09-24T21:47:29.796Z,1.97
2018-09-24T21:50:03.830Z,1.67
2018-09-24T21:52:38.152Z,1.80
2018-09-24T21:55:12.236Z,1.70
2018-09-24T21:57:46.110Z,1.73
2018-09-24T22:00:20.082Z,1.53
2018-09-24T22:02:53.972Z,1.47
2018-09-24T22:05:27.859Z,1.70
2018-09-24T22:08:01.860Z,1.50
2018-09-24T22:10:35.997Z,1.83
2018-09-24T22:13:09.841Z,1.50
2018-09-24T22:15:43.765Z,1.83
2018-09-24T22:18:17.661Z,1.80
2018-09-24T22:20:51.455Z,2.57
2018-09-24T22:23:25.375Z,2.00
2018-09-24T22:25:59.255Z,1.80
2018-09-24T22:28:33.111Z,1.77
2018-09-24T22:31:07.043Z,1.77
2018-09-24T22:33:40.855Z,1.80
2018-09-24T22:36:14.803Z,2.10
2018-09-24T22:38:48.828Z,1.80
2018-09-24T22:41:22.814Z,1.23
2018-09-24T22:43:56.731Z,1.50
2018-09-24T22:46:30.655Z,1.73
2018-09-24T22:49:04.532Z,1.40
2018-09-24T22:51:38.831Z,1.60
2018-09-24T22:54:12.712Z,1.97
2018-09-24T22:56:46.590Z,1.93
2018-09-24T22:59:20.648Z,2.03
2018-09-24T23:01:54.620Z,1.50
2018-09-24T23:04:28.504Z,1.80
2018-09-24T23:07:02.356Z,2.30
2018-09-24T23:09:36.338Z,1.70
2018-09-24T23:12:10.292Z,1.80
2018-09-24T23:14:44.171Z,1.73
2018-09-24T23:17:18.061Z,1.80
2018-09-24T23:19:51.943Z,1.80
2018-09-24T23:22:25.900Z,1.50
2018-09-24T23:24:59.919Z,1.53
2018-09-24T23:27:33.884Z,1.77
2018-09-24T23:30:07.840Z,1.70
2018-09-24T23:32:41.792Z,1.73
2018-09-24T23:35:15.749Z,1.77
2018-09-24T23:37:49.686Z,1.73
2018-09-24T23:40:23.840Z,2.03
2018-09-24T23:42:57.831Z,1.37
2018-09-24T23:45:31.734Z,1.47
2018-09-24T23:48:05.665Z,1.30
2018-09-24T23:50:39.589Z,1.53
2018-09-24T23:53:13.466Z,1.67
2018-09-24T23:55:47.454Z,1.50
2018-09-24T23:58:21.455Z,1.50
